Time;durP1;ratioP1;P1;durP2;ratioP2;P2;SDS_P1;SDS_P2;PMS_P1;PMS_P2;Temp;Humidity;BMP_temperature;BMP_pressure;BME280_temperature;BME280_humidity;BME280_pressure;Samples;Min_cycle;Max_cycle;Signal;HPM_P1;HPM_P2
2023/09/26 00:00:08;;;;;;;0.40;0.40;;;15.20;99.90;;;;;;5032602;28;20108;-65
2023/09/26 00:02:35;;;;;;;0.57;0.57;;;15.20;99.90;;;;;;5015542;28;20045;-65
2023/09/26 00:05:03;;;;;;;0.90;0.75;;;15.20;99.90;;;;;;5025667;28;20034;-65
2023/09/26 00:07:29;;;;;;;3.72;1.55;;;15.20;99.90;;;;;;5031653;28;20092;-65
2023/09/26 00:09:55;;;;;;;1.35;0.73;;;15.30;99.90;;;;;;5026743;28;20508;-65
2023/09/26 00:12:21;;;;;;;0.40;0.40;;;15.20;99.90;;;;;;5024522;28;20045;-65
2023/09/26 00:14:47;;;;;;;0.30;0.30;;;15.20;99.90;;;;;;5031335;28;20103;-65
2023/09/26 00:17:12;;;;;;;0.40;0.40;;;15.20;99.90;;;;;;5029358;28;20052;-65
2023/09/26 00:19:38;;;;;;;1.40;1.05;;;15.10;99.90;;;;;;5025917;28;20044;-65
2023/09/26 00:22:04;;;;;;;2.38;0.73;;;15.10;99.90;;;;;;5019828;28;20054;-65
2023/09/26 00:24:29;;;;;;;0.10;0.10;;;15.10;99.90;;;;;;5030740;28;20045;-65
2023/09/26 00:26:55;;;;;;;0.20;0.20;;;15.20;99.90;;;;;;5032189;28;20049;-65
2023/09/26 00:29:21;;;;;;;0.30;0.30;;;15.20;99.90;;;;;;5018477;28;20188;-64
2023/09/26 00:31:51;;;;;;;0.68;0.68;;;15.10;99.90;;;;;;5018810;28;20045;-65
2023/09/26 00:34:17;;;;;;;0.80;0.63;;;15.10;99.90;;;;;;5031714;28;20041;-65
2023/09/26 00:36:44;;;;;;;0.98;0.75;;;15.20;99.90;;;;;;5031124;28;20037;-65
2023/09/26 00:39:09;;;;;;;0.25;0.25;;;15.20;99.90;;;;;;5017927;28;20053;-65
2023/09/26 00:41:35;;;;;;;0.45;0.45;;;15.20;99.90;;;;;;5024816;28;20045;-65
2023/09/26 00:44:01;;;;;;;0.40;0.40;;;15.20;99.90;;;;;;5028640;28;20080;-65
2023/09/26 00:46:28;;;;;;;0.40;0.40;;;15.20;99.90;;;;;;5014324;28;20081;-65
2023/09/26 00:48:54;;;;;;;0.40;0.40;;;15.10;99.90;;;;;;5030226;28;20045;-65
2023/09/26 00:51:20;;;;;;;0.70;0.70;;;15.10;99.90;;;;;;5029630;28;20077;-65
2023/09/26 00:53:46;;;;;;;0.10;0.10;;;15.10;99.90;;;;;;5025361;28;20072;-65
2023/09/26 00:56:12;;;;;;;2.72;1.58;;;15.10;99.90;;;;;;5021886;28;20057;-64
2023/09/26 00:58:40;;;;;;;0.45;0.28;;;15.10;99.90;;;;;;5029358;28;20053;-65
2023/09/26 01:01:05;;;;;;;0.32;0.32;;;15.10;99.90;;;;;;5031853;28;20120;-65
2023/09/26 01:03:33;;;;;;;0.40;0.40;;;15.10;99.90;;;;;;5018771;28;20157;-65
2023/09/26 01:05:59;;;;;;;0.60;0.60;;;15.10;99.90;;;;;;5025003;28;20034;-65
2023/09/26 01:08:25;;;;;;;1.05;1.05;;;15.10;99.90;;;;;;5030468;28;20053;-65
2023/09/26 01:10:51;;;;;;;0.17;0.17;;;15.10;99.90;;;;;;5018930;28;20042;-65
2023/09/26 01:13:16;;;;;;;0.68;0.68;;;15.20;99.90;;;;;;5025128;28;20041;-65
2023/09/26 01:15:43;;;;;;;4.82;0.52;;;15.10;99.90;;;;;;5031970;28;20072;-65
2023/09/26 01:18:14;;;;;;;0.10;0.10;;;15.20;99.90;;;;;;5026900;28;20045;-65
2023/09/26 01:20:45;;;;;;;0.28;0.28;;;15.10;99.90;;;;;;5025004;28;20046;-64
2023/09/26 01:23:15;;;;;;;0.15;0.13;;;15.10;99.90;;;;;;5022856;28;20472;-65
2023/09/26 01:25:42;;;;;;;0.20;0.20;;;15.00;99.90;;;;;;5019775;28;20055;-65
2023/09/26 01:28:08;;;;;;;0.10;0.10;;;15.00;99.90;;;;;;5020188;28;20062;-65
2023/09/26 01:30:35;;;;;;;0.20;0.20;;;15.10;99.90;;;;;;5029256;28;20046;-65
2023/09/26 01:33:02;;;;;;;0.20;0.20;;;15.10;99.90;;;;;;5030750;28;20052;-65
2023/09/26 01:35:28;;;;;;;0.63;0.43;;;15.00;99.90;;;;;;5020678;28;20041;-65
2023/09/26 01:37:53;;;;;;;0.60;0.60;;;15.00;99.90;;;;;;5020470;28;20073;-65
2023/09/26 01:40:19;;;;;;;0.10;0.10;;;15.10;99.90;;;;;;5021861;28;20045;-65
2023/09/26 01:42:45;;;;;;;0.30;0.30;;;15.00;99.90;;;;;;5029192;28;20496;-65
2023/09/26 01:45:10;;;;;;;0.10;0.10;;;15.00;99.90;;;;;;5031131;28;20054;-65
2023/09/26 01:47:50;;;;;;;0.88;0.88;;;14.90;99.90;;;;;;5019186;28;20050;-65
2023/09/26 01:50:17;;;;;;;1.35;0.85;;;14.80;99.90;;;;;;5020695;28;20068;-65
2023/09/26 01:52:43;;;;;;;0.08;0.08;;;14.80;99.90;;;;;;5021958;28;20042;-65
2023/09/26 01:55:16;;;;;;;0.30;0.30;;;14.80;99.90;;;;;;5019074;28;20048;-65
2023/09/26 01:57:41;;;;;;;0.00;0.00;;;14.90;99.90;;;;;;5034121;28;20049;-65
2023/09/26 02:00:10;;;;;;;0.17;0.17;;;14.80;99.90;;;;;;5020503;28;20049;-64
2023/09/26 02:02:43;;;;;;;0.15;0.15;;;14.90;99.90;;;;;;5025803;28;20124;-65
2023/09/26 02:05:11;;;;;;;3.65;2.50;;;14.90;99.90;;;;;;5034262;28;20059;-65
2023/09/26 02:07:37;;;;;;;0.32;0.32;;;14.90;99.90;;;;;;5031287;28;20041;-65
2023/09/26 02:10:04;;;;;;;0.10;0.10;;;14.90;99.90;;;;;;5024519;28;20037;-65
2023/09/26 02:12:41;;;;;;;0.20;0.20;;;14.90;99.90;;;;;;5034758;28;20042;-65
2023/09/26 02:15:08;;;;;;;0.13;0.13;;;14.90;99.90;;;;;;5025966;28;20713;-65
2023/09/26 02:17:35;;;;;;;0.20;0.20;;;14.90;99.90;;;;;;5020001;28;20096;-65
2023/09/26 02:20:12;;;;;;;0.10;0.10;;;14.90;99.90;;;;;;5029559;28;20043;-65
2023/09/26 02:22:38;;;;;;;1.00;1.00;;;14.90;99.90;;;;;;5030985;28;20052;-65
2023/09/26 02:25:05;;;;;;;0.32;0.32;;;14.80;99.90;;;;;;5021456;28;20137;-65
2023/09/26 02:27:31;;;;;;;0.10;0.10;;;14.80;99.90;;;;;;5033016;28;20057;-65
2023/09/26 02:29:56;;;;;;;0.10;0.10;;;14.80;99.90;;;;;;5020388;28;20042;-64
2023/09/26 02:32:22;;;;;;;1.45;1.33;;;14.80;99.90;;;;;;5034287;28;20041;-65
2023/09/26 02:34:47;;;;;;;0.88;0.65;;;14.90;99.90;;;;;;5030449;28;20038;-65
2023/09/26 02:37:13;;;;;;;0.10;0.10;;;14.80;99.90;;;;;;5022311;28;20034;-65
2023/09/26 02:39:39;;;;;;;0.15;0.15;;;14.80;99.90;;;;;;5032800;28;20083;-64
2023/09/26 02:42:04;;;;;;;0.50;0.50;;;14.80;99.90;;;;;;5033360;28;20052;-65
2023/09/26 02:44:30;;;;;;;0.20;0.20;;;14.70;99.90;;;;;;5027152;28;20037;-65
2023/09/26 02:46:55;;;;;;;0.25;0.22;;;14.80;99.90;;;;;;5024343;28;20412;-65
2023/09/26 02:49:21;;;;;;;1.55;1.35;;;14.80;99.90;;;;;;5032998;28;20045;-65
2023/09/26 02:51:47;;;;;;;0.10;0.10;;;14.80;99.90;;;;;;5031569;28;20037;-65
2023/09/26 02:54:12;;;;;;;0.20;0.20;;;14.80;99.90;;;;;;5025673;28;20045;-64
2023/09/26 02:56:38;;;;;;;0.52;0.52;;;14.90;99.90;;;;;;5030482;28;20057;-65
2023/09/26 02:59:04;;;;;;;0.90;0.75;;;14.90;99.90;;;;;;5028901;28;20056;-65
2023/09/26 03:01:29;;;;;;;0.50;0.50;;;14.90;99.90;;;;;;5033358;28;20396;-64
2023/09/26 03:03:55;;;;;;;0.60;0.60;;;14.90;99.90;;;;;;5017962;28;20129;-65
2023/09/26 03:06:21;;;;;;;0.10;0.10;;;14.90;99.90;;;;;;5021195;28;20143;-65
2023/09/26 03:08:46;;;;;;;0.13;0.13;;;14.80;99.90;;;;;;5033211;28;20518;-65
2023/09/26 03:11:12;;;;;;;0.50;0.47;;;14.70;99.90;;;;;;5022364;28;20044;-65
2023/09/26 03:13:37;;;;;;;1.48;0.60;;;14.70;99.90;;;;;;5024711;28;20044;-65
2023/09/26 03:16:04;;;;;;;0.60;0.55;;;14.70;99.90;;;;;;5012324;28;20077;-65
2023/09/26 03:18:30;;;;;;;0.40;0.40;;;14.70;99.90;;;;;;5018570;28;20045;-65
2023/09/26 03:20:56;;;;;;;0.10;0.10;;;14.70;99.90;;;;;;5033000;28;20044;-65
2023/09/26 03:23:22;;;;;;;3.70;1.10;;;14.70;99.90;;;;;;5033019;28;20152;-65
2023/09/26 03:25:48;;;;;;;0.17;0.17;;;14.60;99.90;;;;;;5021803;28;20053;-65
2023/09/26 03:28:14;;;;;;;0.60;0.60;;;14.50;99.90;;;;;;5033078;28;20041;-65
2023/09/26 03:30:40;;;;;;;0.50;0.50;;;14.60;99.90;;;;;;5025484;28;20041;-65
2023/09/26 03:33:05;;;;;;;0.10;0.10;;;14.60;99.90;;;;;;5025721;28;20057;-65
2023/09/26 03:35:31;;;;;;;0.88;0.88;;;14.50;99.90;;;;;;5033004;28;20393;-65
2023/09/26 03:37:57;;;;;;;0.32;0.32;;;14.50;99.90;;;;;;5031486;28;20076;-65
2023/09/26 03:40:22;;;;;;;0.63;0.47;;;14.40;99.90;;;;;;5029309;28;20119;-65
2023/09/26 03:42:48;;;;;;;0.75;0.75;;;14.50;99.90;;;;;;5031488;28;20060;-65
2023/09/26 03:45:13;;;;;;;0.43;0.43;;;14.50;99.90;;;;;;5032359;28;20041;-65
2023/09/26 03:47:39;;;;;;;1.65;0.47;;;14.50;99.90;;;;;;5022059;28;20107;-65
2023/09/26 03:50:05;;;;;;;0.20;0.20;;;14.50;99.90;;;;;;5020021;28;20046;-65
2023/09/26 03:52:31;;;;;;;0.93;0.85;;;14.50;99.90;;;;;;5030930;28;20048;-65
2023/09/26 03:54:56;;;;;;;2.88;0.60;;;14.50;99.90;;;;;;5032707;28;20041;-65
2023/09/26 03:57:22;;;;;;;0.63;0.63;;;14.50;99.90;;;;;;5022811;28;20057;-65
2023/09/26 03:59:51;;;;;;;0.20;0.20;;;14.50;99.90;;;;;;5023879;28;20041;-65
2023/09/26 04:02:17;;;;;;;0.70;0.70;;;14.40;99.90;;;;;;5022728;28;20513;-65
2023/09/26 04:04:43;;;;;;;0.65;0.65;;;14.40;99.90;;;;;;5022276;28;20069;-65
2023/09/26 04:07:08;;;;;;;0.25;0.25;;;14.40;99.90;;;;;;5018894;28;20081;-65
2023/09/26 04:09:37;;;;;;;0.52;0.35;;;14.50;99.90;;;;;;5026982;28;20033;-65
2023/09/26 04:12:03;;;;;;;0.20;0.20;;;14.40;99.90;;;;;;5031245;28;20071;-65
2023/09/26 04:14:30;;;;;;;0.25;0.25;;;14.50;99.90;;;;;;5021713;28;20092;-65
2023/09/26 04:16:56;;;;;;;0.68;0.68;;;14.40;99.90;;;;;;5029298;28;20099;-65
2023/09/26 04:19:22;;;;;;;0.10;0.10;;;14.40;99.90;;;;;;5031116;28;20485;-65
2023/09/26 04:21:47;;;;;;;0.43;0.43;;;14.40;99.90;;;;;;5031061;28;20048;-65
2023/09/26 04:24:13;;;;;;;0.80;0.80;;;14.40;99.90;;;;;;5030077;28;20532;-65
2023/09/26 04:26:39;;;;;;;0.32;0.32;;;14.40;99.90;;;;;;5028971;28;20766;-64
2023/09/26 04:29:07;;;;;;;0.25;0.25;;;14.40;99.90;;;;;;5030121;28;20049;-65
2023/09/26 04:31:32;;;;;;;1.38;0.85;;;14.40;99.90;;;;;;5030896;28;20042;-65
2023/09/26 04:33:58;;;;;;;0.00;0.00;;;14.40;99.90;;;;;;5028246;28;20042;-65
2023/09/26 04:36:24;;;;;;;1.13;0.60;;;14.40;99.90;;;;;;5031088;28;20037;-65
2023/09/26 04:38:49;;;;;;;0.90;0.73;;;14.30;99.90;;;;;;5029917;28;20038;-65
2023/09/26 04:41:16;;;;;;;0.43;0.43;;;14.30;99.90;;;;;;5018145;28;20076;-65
2023/09/26 04:43:42;;;;;;;0.60;0.60;;;14.30;99.90;;;;;;5029508;28;20124;-64
2023/09/26 04:46:16;;;;;;;0.30;0.30;;;14.30;99.90;;;;;;5021634;28;20137;-65
2023/09/26 04:48:43;;;;;;;0.17;0.17;;;14.30;99.90;;;;;;5022716;28;20125;-64
2023/09/26 04:51:11;;;;;;;0.15;0.15;;;14.20;99.90;;;;;;5026659;28;20564;-65
2023/09/26 04:53:37;;;;;;;1.45;0.52;;;14.20;99.90;;;;;;5022567;28;20136;-65
2023/09/26 04:56:03;;;;;;;0.88;0.28;;;14.20;99.90;;;;;;5031048;28;20855;-65
2023/09/26 04:58:30;;;;;;;0.28;0.28;;;14.20;99.90;;;;;;5025372;28;20050;-65
2023/09/26 05:00:56;;;;;;;0.25;0.25;;;14.20;99.90;;;;;;5028891;28;20045;-65
2023/09/26 05:03:22;;;;;;;0.57;0.57;;;14.10;99.90;;;;;;5027607;28;20052;-65
2023/09/26 05:05:48;;;;;;;0.10;0.10;;;14.20;99.90;;;;;;5031471;28;20041;-65
2023/09/26 05:08:13;;;;;;;0.10;0.10;;;14.10;99.90;;;;;;5031868;28;20124;-65
2023/09/26 05:10:39;;;;;;;0.20;0.20;;;14.10;99.90;;;;;;5031030;28;20037;-64
2023/09/26 05:13:08;;;;;;;0.80;0.80;;;14.10;99.90;;;;;;5019764;28;20065;-65
2023/09/26 05:15:35;;;;;;;3.53;0.68;;;14.10;99.90;;;;;;5013495;28;20104;-65
2023/09/26 05:18:02;;;;;;;1.05;1.00;;;14.10;99.90;;;;;;5030492;28;20552;-64
2023/09/26 05:20:28;;;;;;;0.20;0.20;;;14.10;99.90;;;;;;5031604;28;20055;-64
2023/09/26 05:22:53;;;;;;;0.22;0.22;;;14.10;99.90;;;;;;5016412;28;20112;-65
2023/09/26 05:25:19;;;;;;;0.65;0.65;;;14.10;99.90;;;;;;5023564;28;20103;-65
2023/09/26 05:27:45;;;;;;;0.60;0.50;;;14.10;99.90;;;;;;5021182;28;20041;-64
2023/09/26 05:30:12;;;;;;;0.98;0.73;;;14.10;99.90;;;;;;5034524;28;20037;-65
2023/09/26 05:32:39;;;;;;;0.63;0.55;;;14.10;99.90;;;;;;5033573;28;20406;-64
2023/09/26 05:35:06;;;;;;;0.20;0.20;;;14.10;99.90;;;;;;5031337;28;20053;-65
2023/09/26 05:37:35;;;;;;;0.13;0.13;;;14.10;99.90;;;;;;5033680;28;20049;-65
2023/09/26 05:40:06;;;;;;;0.20;0.20;;;14.10;99.90;;;;;;5032013;28;20092;-65
2023/09/26 05:42:32;;;;;;;0.20;0.20;;;14.10;99.90;;;;;;5025894;28;20076;-65
2023/09/26 05:44:58;;;;;;;0.22;0.22;;;14.10;99.90;;;;;;5034255;28;20081;-65
2023/09/26 05:47:24;;;;;;;0.30;0.30;;;14.10;99.90;;;;;;5027777;28;20098;-65
2023/09/26 05:49:51;;;;;;;0.20;0.20;;;14.10;99.90;;;;;;5030512;28;20069;-65
2023/09/26 05:52:17;;;;;;;0.57;0.57;;;14.00;99.90;;;;;;5032767;28;20075;-65
2023/09/26 05:54:42;;;;;;;0.13;0.13;;;14.10;99.90;;;;;;5027509;28;20064;-65
2023/09/26 05:57:08;;;;;;;0.52;0.52;;;14.20;99.90;;;;;;5029460;28;20077;-64
2023/09/26 05:59:34;;;;;;;0.73;0.73;;;14.20;99.90;;;;;;5032474;28;20491;-65
2023/09/26 06:01:59;;;;;;;0.20;0.20;;;14.30;99.90;;;;;;5021436;28;20041;-64
2023/09/26 06:04:25;;;;;;;0.20;0.20;;;14.30;99.90;;;;;;5023359;28;20051;-65
2023/09/26 06:06:50;;;;;;;1.55;1.45;;;14.30;99.90;;;;;;5033701;28;20805;-65
2023/09/26 06:09:16;;;;;;;1.38;1.27;;;14.40;99.90;;;;;;5033150;28;20117;-65
2023/09/26 06:11:42;;;;;;;6.55;1.20;;;14.40;99.90;;;;;;5024735;28;20439;-64
2023/09/26 06:14:07;;;;;;;0.20;0.20;;;14.40;99.90;;;;;;5033623;28;20045;-65
2023/09/26 06:16:33;;;;;;;0.10;0.10;;;14.50;99.90;;;;;;5023876;28;20111;-65
2023/09/26 06:18:58;;;;;;;0.22;0.22;;;14.40;99.90;;;;;;5029728;28;20041;-65
2023/09/26 06:21:25;;;;;;;0.20;0.20;;;14.40;99.90;;;;;;5027656;28;20037;-65
2023/09/26 06:23:50;;;;;;;3.42;2.05;;;14.50;99.90;;;;;;5034164;28;20064;-65
2023/09/26 06:26:16;;;;;;;1.48;0.93;;;14.50;99.90;;;;;;5031542;28;20037;-65
2023/09/26 06:28:42;;;;;;;0.80;0.20;;;14.50;99.90;;;;;;5029309;28;20042;-65
2023/09/26 06:31:09;;;;;;;0.13;0.13;;;14.50;99.90;;;;;;5026506;28;20136;-65
2023/09/26 06:33:36;;;;;;;1.95;0.82;;;14.60;99.90;;;;;;5034214;28;20099;-65
2023/09/26 06:36:15;;;;;;;2.55;1.17;;;14.60;99.90;;;;;;5031289;28;20520;-65
2023/09/26 06:38:41;;;;;;;1.55;0.95;;;14.60;99.90;;;;;;5021743;28;20042;-65
2023/09/26 06:41:07;;;;;;;0.08;0.08;;;14.60;99.90;;;;;;5024832;28;20508;-65
2023/09/26 06:43:32;;;;;;;0.55;0.55;;;14.60;99.90;;;;;;5019588;28;20069;-65
2023/09/26 06:46:04;;;;;;;1.15;1.13;;;14.70;99.90;;;;;;5033670;28;20049;-65
2023/09/26 06:48:29;;;;;;;1.20;1.10;;;14.70;99.90;;;;;;5028251;28;20049;-65
2023/09/26 06:50:55;;;;;;;0.40;0.40;;;14.70;99.90;;;;;;5023992;28;20037;-65
2023/09/26 06:53:21;;;;;;;0.10;0.10;;;14.80;99.90;;;;;;5031702;28;20403;-65
2023/09/26 06:55:46;;;;;;;0.40;0.40;;;14.80;99.90;;;;;;5027909;28;20057;-65
2023/09/26 06:58:12;;;;;;;0.50;0.50;;;14.80;99.90;;;;;;5028878;28;20122;-65
2023/09/26 07:00:38;;;;;;;0.10;0.10;;;14.80;99.90;;;;;;5033459;28;20114;-65
2023/09/26 07:03:05;;;;;;;0.00;0.00;;;14.80;99.90;;;;;;5026362;28;20389;-65
2023/09/26 07:05:31;;;;;;;0.22;0.22;;;14.80;99.90;;;;;;5018030;28;20048;-65
2023/09/26 07:07:57;;;;;;;0.20;0.20;;;14.90;99.90;;;;;;5022355;28;20033;-65
2023/09/26 07:10:23;;;;;;;0.28;0.28;;;14.90;99.90;;;;;;5033018;28;20370;-65
2023/09/26 07:12:49;;;;;;;0.47;0.47;;;14.90;99.90;;;;;;5022612;28;20042;-65
2023/09/26 07:15:15;;;;;;;0.40;0.30;;;14.90;99.90;;;;;;5033929;28;20377;-65
2023/09/26 07:17:41;;;;;;;0.20;0.20;;;14.90;99.90;;;;;;5022639;28;20042;-65
2023/09/26 07:20:13;;;;;;;0.20;0.20;;;14.90;99.90;;;;;;5032640;28;20053;-65
2023/09/26 07:22:42;;;;;;;0.80;0.77;;;15.00;99.90;;;;;;5018713;28;20050;-65
2023/09/26 07:25:09;;;;;;;0.38;0.38;;;15.00;99.90;;;;;;5032157;28;20132;-65
2023/09/26 07:27:35;;;;;;;0.20;0.20;;;15.00;99.90;;;;;;5032727;28;20087;-65
2023/09/26 07:30:01;;;;;;;0.10;0.10;;;15.10;99.90;;;;;;5024085;28;20042;-65
2023/09/26 07:32:27;;;;;;;0.05;0.05;;;15.20;99.90;;;;;;5018179;28;20119;-65
2023/09/26 07:34:53;;;;;;;0.10;0.10;;;15.20;99.90;;;;;;5029594;28;20449;-65
2023/09/26 07:37:18;;;;;;;0.30;0.30;;;15.40;99.90;;;;;;5032481;28;20480;-65
2023/09/26 07:39:48;;;;;;;0.30;0.30;;;15.40;99.90;;;;;;5032388;28;20045;-65
2023/09/26 07:42:14;;;;;;;0.68;0.68;;;15.50;99.90;;;;;;5029037;28;20045;-65
2023/09/26 07:44:40;;;;;;;0.70;0.70;;;15.60;99.90;;;;;;5032134;28;20503;-65
2023/09/26 07:47:05;;;;;;;0.20;0.20;;;15.70;99.90;;;;;;5032729;28;20053;-65
2023/09/26 07:49:31;;;;;;;0.13;0.13;;;15.80;99.90;;;;;;5030693;28;20052;-65
2023/09/26 07:51:56;;;;;;;0.30;0.20;;;15.90;99.90;;;;;;5023497;28;20092;-65
2023/09/26 07:54:22;;;;;;;0.20;0.20;;;16.10;99.90;;;;;;5032445;28;20037;-65
2023/09/26 07:56:48;;;;;;;0.08;0.08;;;16.10;99.90;;;;;;5030515;28;20099;-65
2023/09/26 07:59:13;;;;;;;0.10;0.10;;;16.10;99.90;;;;;;5018670;28;20046;-65
2023/09/26 08:01:39;;;;;;;0.10;0.10;;;16.10;99.90;;;;;;5029919;28;20069;-65
2023/09/26 08:04:04;;;;;;;0.00;0.00;;;16.10;99.90;;;;;;5032514;28;20073;-65
2023/09/26 08:06:31;;;;;;;0.22;0.17;;;16.10;99.90;;;;;;5029915;28;20045;-64
2023/09/26 08:08:57;;;;;;;0.00;0.00;;;16.10;99.90;;;;;;5020346;28;20049;-65
2023/09/26 08:11:27;;;;;;;0.10;0.10;;;16.10;99.90;;;;;;5027441;28;20863;-65
2023/09/26 08:13:54;;;;;;;0.03;0.03;;;16.00;99.90;;;;;;5031408;28;20592;-65
2023/09/26 08:16:20;;;;;;;0.85;0.85;;;16.10;99.90;;;;;;5028687;28;20053;-65
2023/09/26 08:18:46;;;;;;;0.30;0.30;;;16.10;99.90;;;;;;5018609;28;20432;-65
2023/09/26 08:21:11;;;;;;;0.10;0.10;;;16.10;99.90;;;;;;5031512;28;20049;-65
2023/09/26 08:23:37;;;;;;;0.30;0.30;;;16.10;99.90;;;;;;5031859;28;20045;-65
2023/09/26 08:26:06;;;;;;;0.43;0.43;;;16.10;99.90;;;;;;5020694;28;20046;-65
2023/09/26 08:28:32;;;;;;;0.10;0.10;;;16.20;99.90;;;;;;5026008;28;20099;-65
2023/09/26 08:31:07;;;;;;;0.75;0.70;;;16.20;99.90;;;;;;5030464;28;20037;-65
2023/09/26 08:33:33;;;;;;;1.25;0.30;;;16.30;99.90;;;;;;5026847;28;20077;-65
2023/09/26 08:35:59;;;;;;;0.38;0.38;;;17.00;99.90;;;;;;5030092;28;20071;-64
2023/09/26 08:38:25;;;;;;;0.30;0.30;;;17.80;99.90;;;;;;5032381;28;20065;-64
2023/09/26 08:40:51;;;;;;;0.85;0.75;;;18.10;99.90;;;;;;5031291;28;20111;-65
2023/09/26 08:43:24;;;;;;;1.65;0.45;;;18.00;99.90;;;;;;5023203;28;20124;-65
2023/09/26 08:45:50;;;;;;;0.43;0.43;;;18.00;99.90;;;;;;5025192;28;20041;-65
2023/09/26 08:48:16;;;;;;;0.63;0.63;;;18.60;99.90;;;;;;5031409;28;20056;-65
2023/09/26 08:50:42;;;;;;;1.77;1.60;;;18.80;99.90;;;;;;5025495;28;20125;-65
2023/09/26 08:53:07;;;;;;;0.55;0.55;;;19.00;99.90;;;;;;5012162;28;20164;-65
2023/09/26 08:55:34;;;;;;;3.13;1.23;;;19.40;99.90;;;;;;5028926;28;20057;-65
2023/09/26 08:58:00;;;;;;;0.75;0.52;;;19.70;99.90;;;;;;5031806;28;20054;-65
2023/09/26 09:00:27;;;;;;;0.32;0.32;;;19.40;99.90;;;;;;5029812;28;20385;-65
2023/09/26 09:02:53;;;;;;;0.10;0.10;;;19.20;99.90;;;;;;5024374;28;20049;-65
2023/09/26 09:05:20;;;;;;;0.80;0.63;;;19.00;99.90;;;;;;5036290;28;20039;-65
2023/09/26 09:07:47;;;;;;;0.20;0.20;;;18.80;99.90;;;;;;5035928;28;20072;-65
2023/09/26 09:10:16;;;;;;;0.20;0.20;;;18.50;99.90;;;;;;5032278;28;20041;-65
2023/09/26 09:12:44;;;;;;;0.00;0.00;;;18.30;99.90;;;;;;5023284;28;20042;-65
2023/09/26 09:15:15;;;;;;;0.80;0.63;;;18.20;99.90;;;;;;5035940;28;20049;-65
2023/09/26 09:17:42;;;;;;;0.10;0.10;;;18.20;99.90;;;;;;5035309;28;20120;-65
2023/09/26 09:20:09;;;;;;;0.30;0.30;;;18.20;99.90;;;;;;5023341;28;20049;-65
2023/09/26 09:22:35;;;;;;;0.03;0.03;;;18.10;99.90;;;;;;5030974;28;20396;-65
2023/09/26 09:25:02;;;;;;;0.40;0.40;;;18.00;99.90;;;;;;5034440;28;20042;-65
2023/09/26 09:27:28;;;;;;;0.20;0.20;;;17.90;99.90;;;;;;5032269;28;20099;-65
2023/09/26 09:30:19;;;;;;;1.25;0.22;;;17.80;99.90;;;;;;5023121;28;20046;-65
2023/09/26 09:32:45;;;;;;;2.53;0.93;;;17.80;99.90;;;;;;5035615;28;20120;-65
2023/09/26 09:35:13;;;;;;;0.08;0.08;;;17.70;99.90;;;;;;5035339;28;20107;-65
2023/09/26 09:37:43;;;;;;;0.20;0.20;;;17.70;99.90;;;;;;5022591;28;20085;-65
2023/09/26 09:40:09;;;;;;;1.13;0.75;;;17.70;99.90;;;;;;5029630;28;20041;-65
2023/09/26 09:42:36;;;;;;;0.47;0.30;;;17.70;99.90;;;;;;5035646;28;20041;-65
2023/09/26 09:45:04;;;;;;;0.65;0.50;;;17.70;99.90;;;;;;5025296;28;20050;-65
2023/09/26 09:47:32;;;;;;;0.00;0.00;;;17.70;99.90;;;;;;5025451;28;20442;-65
2023/09/26 09:50:00;;;;;;;0.20;0.17;;;17.80;99.90;;;;;;5028317;28;20046;-65
2023/09/26 09:52:31;;;;;;;0.52;0.52;;;17.70;99.90;;;;;;5033063;28;20374;-64
2023/09/26 09:54:57;;;;;;;0.30;0.30;;;17.70;99.90;;;;;;5029900;28;20443;-65
2023/09/26 09:57:28;;;;;;;0.20;0.20;;;17.70;99.90;;;;;;5026028;28;20083;-65
2023/09/26 09:59:54;;;;;;;0.63;0.63;;;17.80;99.90;;;;;;5023361;28;20164;-65
2023/09/26 10:02:22;;;;;;;0.10;0.10;;;17.80;99.90;;;;;;5025241;28;20053;-65
2023/09/26 10:04:48;;;;;;;0.38;0.38;;;17.80;99.90;;;;;;5031341;28;20069;-65
2023/09/26 10:07:17;;;;;;;0.10;0.10;;;17.80;99.90;;;;;;5027964;28;20042;-65
2023/09/26 10:09:44;;;;;;;0.20;0.20;;;17.80;99.90;;;;;;5033421;28;20076;-65
2023/09/26 10:12:12;;;;;;;1.55;0.30;;;17.80;99.90;;;;;;5034749;28;20388;-64
2023/09/26 10:14:38;;;;;;;1.65;0.43;;;17.80;99.90;;;;;;5030396;28;20048;-65
2023/09/26 10:17:04;;;;;;;0.50;0.50;;;17.80;99.90;;;;;;5033470;28;20049;-65
2023/09/26 10:19:33;;;;;;;0.70;0.68;;;17.90;99.90;;;;;;5033809;28;20033;-65
2023/09/26 10:22:34;;;;;;;0.10;0.10;;;18.00;99.90;;;;;;5026979;28;20050;-65
2023/09/26 10:25:02;;;;;;;0.10;0.10;;;18.00;99.90;;;;;;5021631;28;20065;-65
2023/09/26 10:27:30;;;;;;;0.00;0.00;;;18.20;99.90;;;;;;5024808;28;20234;-65
2023/09/26 10:29:56;;;;;;;0.20;0.20;;;18.30;99.90;;;;;;5026849;28;20135;-65
2023/09/26 10:32:30;;;;;;;0.35;0.35;;;18.30;99.90;;;;;;5031482;28;20061;-65
2023/09/26 10:34:57;;;;;;;0.13;0.13;;;18.40;99.90;;;;;;5030322;28;20056;-65
2023/09/26 10:37:26;;;;;;;0.10;0.10;;;18.50;99.90;;;;;;5026050;28;20030;-65
2023/09/26 10:39:51;;;;;;;0.20;0.20;;;18.70;99.90;;;;;;5029955;28;20037;-65
2023/09/26 10:42:22;;;;;;;0.10;0.10;;;18.80;99.90;;;;;;5030546;28;20555;-65
2023/09/26 10:44:51;;;;;;;0.32;0.32;;;18.80;99.90;;;;;;5033838;28;20041;-65
2023/09/26 10:47:19;;;;;;;0.65;0.65;;;19.00;99.90;;;;;;5028004;28;20077;-65
2023/09/26 10:49:44;;;;;;;0.57;0.45;;;19.10;99.90;;;;;;5032910;28;20033;-65
2023/09/26 10:52:11;;;;;;;0.38;0.38;;;19.30;99.90;;;;;;5033520;28;20124;-65
2023/09/26 10:54:39;;;;;;;1.13;0.55;;;19.50;99.90;;;;;;5012968;28;20049;-65
2023/09/26 10:57:05;;;;;;;0.30;0.30;;;19.80;99.90;;;;;;5018338;28;20077;-65
2023/09/26 10:59:32;;;;;;;1.17;1.10;;;20.00;99.90;;;;;;5029285;28;20742;-65
2023/09/26 11:01:59;;;;;;;0.32;0.30;;;19.90;99.90;;;;;;5024524;28;20044;-65
2023/09/26 11:04:31;;;;;;;0.63;0.63;;;19.80;99.90;;;;;;5028825;28;20111;-65
2023/09/26 11:06:58;;;;;;;2.72;1.23;;;19.70;99.90;;;;;;5025686;28;20049;-65
2023/09/26 11:09:24;;;;;;;0.20;0.20;;;19.70;99.90;;;;;;5018960;28;20042;-65
2023/09/26 11:11:50;;;;;;;0.30;0.30;;;19.60;99.90;;;;;;5030144;28;20571;-65
2023/09/26 11:14:17;;;;;;;0.75;0.75;;;19.60;99.90;;;;;;5030578;28;20045;-65
2023/09/26 11:16:43;;;;;;;0.35;0.35;;;19.80;99.90;;;;;;5022030;28;20034;-65
2023/09/26 11:19:09;;;;;;;0.30;0.30;;;20.00;99.90;;;;;;5023741;28;20052;-65
2023/09/26 11:21:36;;;;;;;0.10;0.10;;;20.50;99.90;;;;;;5020438;28;20116;-65
2023/09/26 11:24:17;;;;;;;2.53;0.38;;;20.90;99.90;;;;;;5030268;28;20053;-64
2023/09/26 11:26:44;;;;;;;1.75;1.27;;;21.30;99.90;;;;;;5032074;28;20038;-65
2023/09/26 11:29:10;;;;;;;0.10;0.10;;;21.70;99.90;;;;;;5021099;28;20107;-65
2023/09/26 11:31:36;;;;;;;0.40;0.40;;;22.00;99.90;;;;;;5028600;28;20029;-65
2023/09/26 11:34:02;;;;;;;0.00;0.00;;;22.30;99.90;;;;;;5032973;28;20057;-65
2023/09/26 11:36:28;;;;;;;0.30;0.30;;;22.50;99.90;;;;;;5019567;28;20045;-65
2023/09/26 11:38:53;;;;;;;1.98;0.80;;;22.50;99.90;;;;;;5026685;28;20509;-65
2023/09/26 11:41:20;;;;;;;0.60;0.60;;;22.50;99.90;;;;;;5022820;28;20053;-65
2023/09/26 11:43:47;;;;;;;0.00;0.00;;;22.70;99.90;;;;;;5029375;28;20042;-65
2023/09/26 11:46:14;;;;;;;0.20;0.20;;;22.90;99.90;;;;;;5032739;28;20048;-65
2023/09/26 11:48:44;;;;;;;0.38;0.38;;;23.30;99.90;;;;;;5031452;28;20048;-65
2023/09/26 11:51:10;;;;;;;0.10;0.10;;;23.70;99.90;;;;;;5019332;28;20496;-65
2023/09/26 11:53:37;;;;;;;0.30;0.30;;;23.80;99.90;;;;;;5032426;28;20030;-65
2023/09/26 11:56:07;;;;;;;0.15;0.15;;;23.80;99.90;;;;;;5027668;28;20492;-65
2023/09/26 11:58:32;;;;;;;0.38;0.38;;;23.90;99.90;;;;;;5020673;28;20139;-65
2023/09/26 12:00:58;;;;;;;0.10;0.10;;;23.60;99.90;;;;;;5032528;28;20064;-65
2023/09/26 12:03:24;;;;;;;0.30;0.30;;;23.40;99.90;;;;;;5030284;28;20045;-65
2023/09/26 12:05:49;;;;;;;0.10;0.10;;;23.30;99.90;;;;;;5029494;28;20053;-65
2023/09/26 12:08:15;;;;;;;0.32;0.32;;;23.00;99.90;;;;;;5032335;28;20045;-65
2023/09/26 12:10:43;;;;;;;0.00;0.00;;;23.00;99.90;;;;;;5025837;28;20088;-65
2023/09/26 12:13:08;;;;;;;0.20;0.20;;;22.90;99.90;;;;;;5024784;28;20120;-66
2023/09/26 12:15:34;;;;;;;0.10;0.10;;;23.00;99.90;;;;;;5032055;28;20045;-65
2023/09/26 12:18:00;;;;;;;0.10;0.10;;;22.70;99.90;;;;;;5023283;28;20144;-65
2023/09/26 12:20:25;;;;;;;0.90;0.65;;;22.50;99.90;;;;;;5026027;28;20048;-65
2023/09/26 12:22:53;;;;;;;0.00;0.00;;;22.30;99.90;;;;;;5015733;28;20099;-65
2023/09/26 12:25:22;;;;;;;0.00;0.00;;;22.10;99.90;;;;;;5025066;28;20049;-65
2023/09/26 12:27:47;;;;;;;0.00;0.00;;;21.90;99.90;;;;;;5031098;28;20481;-65
2023/09/26 12:30:13;;;;;;;0.08;0.08;;;21.80;99.90;;;;;;5019942;28;20046;-65
2023/09/26 12:32:40;;;;;;;0.40;0.40;;;21.80;99.90;;;;;;5024503;28;20120;-64
2023/09/26 12:35:06;;;;;;;0.00;0.00;;;21.90;99.90;;;;;;5021411;28;20062;-65
2023/09/26 12:37:32;;;;;;;0.00;0.00;;;22.10;99.90;;;;;;5029343;28;20433;-65
2023/09/26 12:39:58;;;;;;;2.28;0.65;;;22.30;99.90;;;;;;5022052;28;20129;-65
2023/09/26 12:42:24;;;;;;;0.15;0.15;;;22.60;99.90;;;;;;5031173;28;20132;-65
2023/09/26 12:44:50;;;;;;;0.75;0.75;;;22.80;99.90;;;;;;5017116;28;20523;-65